Time;durP1;ratioP1;P1;durP2;ratioP2;P2;SDS_P1;SDS_P2;PMS_P1;PMS_P2;Temp;Humidity;BMP_temperature;BMP_pressure;BME280_temperature;BME280_humidity;BME280_pressure;Samples;Min_cycle;Max_cycle;Signal;HPM_P1;HPM_P2
2022/05/03 00:01:39;;;;;;;3.28;3.05;;;;;;;10.18;66.74;94677.06;5017607;28;20199;-66
2022/05/03 00:04:10;;;;;;;3.03;2.83;;;;;;;10.24;67.52;94683.88;5033778;28;20565;-66
2022/05/03 00:06:45;;;;;;;3.07;2.87;;;;;;;10.30;67.64;94685.22;5033776;28;20216;-66
2022/05/03 00:09:22;;;;;;;3.50;3.20;;;;;;;10.23;67.62;94674.00;5034656;28;20201;-67
2022/05/03 00:11:53;;;;;;;3.40;3.10;;;;;;;10.21;68.17;94685.41;5034866;28;20190;-67
2022/05/03 00:14:25;;;;;;;3.30;3.00;;;;;;;10.23;68.07;94679.53;5034353;28;20183;-67
2022/05/03 00:16:54;;;;;;;3.38;3.08;;;;;;;10.17;68.16;94680.94;5034550;28;20197;-67
2022/05/03 00:19:22;;;;;;;3.58;3.28;;;;;;;10.17;68.38;94680.94;5034824;28;20191;-67
2022/05/03 00:21:50;;;;;;;3.17;2.90;;;;;;;10.15;68.87;94677.78;5033609;28;20202;-67
2022/05/03 00:24:20;;;;;;;2.88;2.67;;;;;;;10.11;68.90;94678.50;5017138;28;20198;-67
2022/05/03 00:26:48;;;;;;;2.75;2.55;;;;;;;10.11;67.57;94666.66;5034332;28;20186;-67
2022/05/03 00:29:20;;;;;;;2.58;2.47;;;;;;;10.06;66.62;94672.47;5034132;28;20692;-67
2022/05/03 00:31:50;;;;;;;3.20;2.90;;;;;;;10.06;67.30;94675.22;5034473;28;20187;-67
2022/05/03 00:34:21;;;;;;;3.10;2.88;;;;;;;10.05;67.95;94679.91;5016442;28;20226;-67
2022/05/03 00:36:49;;;;;;;3.15;2.70;;;;;;;10.04;68.64;94672.03;5034401;28;20182;-67
2022/05/03 00:39:16;;;;;;;4.35;3.03;;;;;;;10.03;68.14;94671.22;5034543;28;20189;-67
2022/05/03 00:41:54;;;;;;;3.10;2.80;;;;;;;10.02;68.89;94677.91;5034333;28;20197;-67
2022/05/03 00:47:21;;;;;;;4.90;3.00;;;;;;;9.96;69.32;94679.31;5017221;28;20198;-67
2022/05/03 00:49:57;;;;;;;2.80;2.58;;;;;;;9.95;69.12;94677.75;5033883;28;20634;-66
2022/05/03 00:52:29;;;;;;;2.90;2.70;;;;;;;9.96;69.82;94681.28;5034151;28;20221;-66
2022/05/03 00:55:19;;;;;;;2.70;2.53;;;;;;;9.95;69.42;94679.66;5016515;28;20198;-66
2022/05/03 00:58:02;;;;;;;3.10;2.90;;;;;;;9.95;69.39;94674.16;5033126;28;20208;-67
2022/05/03 01:00:31;;;;;;;3.38;3.13;;;;;;;9.97;69.79;94678.16;5033867;28;20183;-67
2022/05/03 01:03:13;;;;;;;2.95;2.75;;;;;;;9.92;68.34;94678.44;5016723;28;20202;-67
2022/05/03 01:05:47;;;;;;;2.75;2.60;;;;;;;9.87;68.15;94671.25;5016166;28;20296;-67
2022/05/03 01:08:29;;;;;;;2.58;2.47;;;;;;;9.83;67.79;94672.31;5033774;28;20212;-67
2022/05/03 01:11:13;;;;;;;3.00;2.80;;;;;;;9.72;67.80;94665.75;5033858;28;20217;-67
2022/05/03 01:13:48;;;;;;;2.75;2.55;;;;;;;9.76;68.33;94672.16;5033075;28;20198;-66
2022/05/03 01:16:23;;;;;;;2.83;2.63;;;;;;;9.75;68.31;94667.81;5033458;28;20603;-67
2022/05/03 01:18:55;;;;;;;2.33;2.22;;;;;;;9.71;67.77;94664.16;5016397;28;20229;-67
2022/05/03 01:21:45;;;;;;;2.50;2.40;;;;;;;9.62;66.73;94665.16;5016331;28;20194;-67
2022/05/03 01:24:33;;;;;;;2.63;2.42;;;;;;;9.63;67.56;94663.22;5032681;28;20690;-67
2022/05/03 01:27:39;;;;;;;2.80;2.60;;;;;;;9.67;67.30;94663.28;5032344;28;20202;-67
2022/05/03 01:30:12;;;;;;;2.60;2.40;;;;;;;9.65;66.95;94663.63;5009819;28;20229;-67
2022/05/03 01:32:44;;;;;;;4.22;2.70;;;;;;;9.68;67.11;94648.34;5033496;28;20206;-67
2022/05/03 01:35:14;;;;;;;2.45;2.28;;;;;;;9.70;66.95;94654.31;5015916;28;20198;-67
2022/05/03 01:38:07;;;;;;;2.83;2.63;;;;;;;9.72;67.78;94650.03;5033291;28;20198;-67
2022/05/03 01:40:47;;;;;;;2.60;2.40;;;;;;;9.73;67.85;94643.38;5033481;28;20194;-67
2022/05/03 01:43:25;;;;;;;2.45;2.33;;;;;;;9.71;67.07;94650.41;5033548;28;20201;-67
2022/05/03 01:46:05;;;;;;;2.65;2.45;;;;;;;9.69;66.96;94634.22;5033576;28;20191;-67
2022/05/03 01:51:50;;;;;;;2.35;2.25;;;;;;;9.68;68.39;94632.63;5036926;28;20209;-67
2022/05/03 01:54:39;;;;;;;2.85;2.65;;;;;;;9.69;68.86;94633.44;5037523;28;20200;-67
2022/05/03 01:57:13;;;;;;;3.00;2.80;;;;;;;9.68;68.66;94635.38;5019938;28;20229;-67
2022/05/03 01:59:48;;;;;;;3.22;2.53;;;;;;;9.69;68.62;94633.44;5020182;28;20185;-67
2022/05/03 02:02:27;;;;;;;3.03;2.80;;;;;;;9.72;69.00;94632.72;5019577;28;20205;-66
2022/05/03 02:05:02;;;;;;;2.70;2.60;;;;;;;9.74;68.64;94635.94;5037102;28;20245;-66
2022/05/03 02:07:53;;;;;;;2.80;2.60;;;;;;;9.71;68.39;94634.69;5036160;28;20206;-66
2022/05/03 02:10:44;;;;;;;2.83;2.63;;;;;;;9.67;68.95;94638.50;5019436;28;20222;-66
2022/05/03 02:14:43;;;;;;;3.30;3.10;;;;;;;9.63;68.78;94630.97;5019257;28;20205;-66
2022/05/03 02:16:28;;;;;;;3.25;2.70;;;;;;;9.63;67.92;94632.91;5036585;28;20205;-66
2022/05/03 02:19:10;;;;;;;3.50;3.20;;;;;;;9.60;68.86;94631.66;5037002;28;20178;-66
2022/05/03 02:21:53;;;;;;;3.13;2.92;;;;;;;9.59;68.81;94629.28;5036628;28;20629;-66
2022/05/03 02:24:29;;;;;;;3.30;3.00;;;;;;;9.58;68.74;94630.41;5036816;28;20196;-66
2022/05/03 02:27:07;;;;;;;3.10;2.90;;;;;;;9.56;68.86;94627.25;5036859;28;20183;-66
2022/05/03 02:29:44;;;;;;;3.47;3.28;;;;;;;9.57;68.85;94631.59;5035241;28;20312;-66
2022/05/03 02:32:14;;;;;;;3.67;3.33;;;;;;;9.60;68.27;94628.13;5019138;28;20646;-66
2022/05/03 02:34:48;;;;;;;3.25;3.05;;;;;;;9.59;67.92;94626.53;5036672;28;20197;-66
2022/05/03 02:37:18;;;;;;;3.20;3.00;;;;;;;9.62;68.15;94620.28;5036284;28;20178;-67
2022/05/03 02:39:52;;;;;;;3.53;3.22;;;;;;;9.63;68.60;94619.16;5035525;28;20234;-67
2022/05/03 02:42:21;;;;;;;3.50;3.30;;;;;;;9.59;67.87;94619.06;5035239;28;20245;-67
2022/05/03 02:44:49;;;;;;;3.28;3.08;;;;;;;9.59;68.66;94619.06;5018879;28;20221;-67
2022/05/03 02:47:30;;;;;;;3.65;3.35;;;;;;;9.57;68.91;94621.38;5019039;28;20191;-67
2022/05/03 02:50:11;;;;;;;3.22;3.03;;;;;;;9.55;69.08;94618.19;5035487;28;20225;-67
2022/05/03 02:52:48;;;;;;;4.05;3.60;;;;;;;9.49;69.10;94616.84;5018855;28;20198;-67
2022/05/03 02:55:34;;;;;;;3.67;3.47;;;;;;;9.40;70.21;94621.72;5035944;28;20190;-67
2022/05/03 02:58:07;;;;;;;3.45;3.25;;;;;;;9.30;69.73;94622.28;5018073;28;20206;-67
2022/05/03 03:04:00;;;;;;;3.83;3.53;;;;;;;9.36;70.70;94613.38;4993221;28;20206;-68
2022/05/03 03:06:32;;;;;;;3.75;3.53;;;;;;;9.31;70.76;94629.38;5035564;28;20204;-68
2022/05/03 03:09:02;;;;;;;3.70;3.40;;;;;;;9.22;70.16;94628.75;5035615;28;20630;-68
2022/05/03 03:11:32;;;;;;;3.60;3.40;;;;;;;9.16;71.01;94629.03;5035610;28;20202;-68
2022/05/03 03:14:09;;;;;;;3.78;3.47;;;;;;;9.24;70.38;94629.19;5018160;28;20206;-68
2022/05/03 03:16:42;;;;;;;3.72;3.47;;;;;;;9.24;69.72;94631.97;5018311;28;20210;-68
2022/05/03 03:19:29;;;;;;;3.92;3.63;;;;;;;9.18;70.11;94630.63;5035853;28;20183;-68
2022/05/03 03:22:00;;;;;;;3.47;3.28;;;;;;;9.28;70.00;94625.38;5035769;28;20248;-69
2022/05/03 03:24:27;;;;;;;3.95;3.65;;;;;;;9.24;70.32;94623.69;5017962;28;20228;-68
2022/05/03 03:26:55;;;;;;;3.88;3.65;;;;;;;9.30;69.91;94627.78;5034199;28;20213;-68
2022/05/03 03:29:25;;;;;;;3.92;3.63;;;;;;;9.30;69.72;94631.34;5034276;28;20260;-70
2022/05/03 03:31:54;;;;;;;3.67;3.35;;;;;;;9.32;69.59;94625.47;5035381;28;20217;-68
2022/05/03 03:34:25;;;;;;;4.43;4.10;;;;;;;9.25;69.65;94633.53;5035325;28;20182;-68
2022/05/03 03:37:01;;;;;;;4.20;3.75;;;;;;;9.21;69.87;94627.16;5035389;28;20191;-68
2022/05/03 03:39:32;;;;;;;4.25;3.90;;;;;;;9.18;69.71;94627.88;5034361;28;20204;-68
2022/05/03 03:42:02;;;;;;;3.88;3.58;;;;;;;9.21;69.30;94632.66;5034119;28;20206;-68
2022/05/03 03:44:31;;;;;;;4.28;3.88;;;;;;;9.18;69.77;94630.63;5035228;28;20183;-66
2022/05/03 03:47:00;;;;;;;4.00;3.70;;;;;;;9.01;69.71;94631.78;5017732;28;20194;-66
2022/05/03 03:49:31;;;;;;;4.03;3.72;;;;;;;8.97;70.17;94634.44;5035169;28;20284;-66
2022/05/03 03:52:02;;;;;;;3.88;3.58;;;;;;;8.94;70.37;94637.88;5035038;28;20211;-67
2022/05/03 03:54:34;;;;;;;3.67;3.40;;;;;;;8.91;70.91;94639.38;5034942;28;20624;-67
2022/05/03 03:57:04;;;;;;;3.78;3.45;;;;;;;8.88;71.28;94644.78;5033834;28;20233;-67
2022/05/03 03:59:33;;;;;;;3.83;3.53;;;;;;;8.70;71.51;94647.06;5001924;28;20201;-67
2022/05/03 04:02:01;;;;;;;4.20;3.90;;;;;;;8.70;71.33;94638.81;5017764;28;20198;-67
2022/05/03 04:04:31;;;;;;;3.28;3.08;;;;;;;8.72;71.46;94641.22;5033906;28;20194;-67
2022/05/03 04:07:00;;;;;;;5.18;4.70;;;;;;;8.82;71.70;94640.69;5017848;28;20191;-72
2022/05/03 04:09:29;;;;;;;4.10;3.80;;;;;;;8.91;72.05;94641.34;5034450;28;20203;-70
2022/05/03 04:12:03;;;;;;;3.90;3.60;;;;;;;8.97;71.67;94647.34;5034347;28;20228;-68
2022/05/03 04:14:32;;;;;;;4.15;3.85;;;;;;;9.00;71.76;94644.69;5034464;28;20269;-69
2022/05/03 04:17:00;;;;;;;3.95;3.65;;;;;;;8.89;71.57;94640.88;5034964;28;20191;-70
2022/05/03 04:19:29;;;;;;;3.92;3.63;;;;;;;8.99;71.86;94642.31;5034322;28;20529;-70
2022/05/03 04:22:12;;;;;;;3.85;3.42;;;;;;;9.02;71.73;94644.38;5034454;28;20281;-69
2022/05/03 04:24:40;;;;;;;3.83;3.53;;;;;;;8.98;71.56;94646.22;5017191;28;20198;-69
2022/05/03 04:27:09;;;;;;;4.35;3.63;;;;;;;9.04;71.60;94653.06;5016944;28;20202;-69
2022/05/03 04:29:37;;;;;;;4.00;3.70;;;;;;;9.13;71.37;94650.94;5033079;28;20246;-69
2022/05/03 04:32:05;;;;;;;4.28;3.88;;;;;;;9.01;71.11;94662.03;5016989;28;20220;-69
2022/05/03 04:34:33;;;;;;;3.75;3.45;;;;;;;9.00;71.45;94663.16;5034342;28;20206;-69
2022/05/03 04:37:01;;;;;;;3.58;3.28;;;;;;;8.94;71.54;94648.88;5033551;28;20198;-69
2022/05/03 04:39:30;;;;;;;4.05;3.70;;;;;;;8.91;72.76;94658.63;5034251;28;20207;-69
2022/05/03 04:41:58;;;;;;;3.80;3.50;;;;;;;8.90;72.27;94661.75;5016911;28;20518;-69
2022/05/03 04:44:28;;;;;;;3.53;3.22;;;;;;;8.84;71.96;94661.19;5033787;28;20191;-69
2022/05/03 04:46:58;;;;;;;6.40;5.68;;;;;;;8.98;72.34;94662.72;5033237;28;20199;-69
2022/05/03 04:49:28;;;;;;;3.90;3.60;;;;;;;8.97;71.87;94661.94;5016772;28;20209;-69
2022/05/03 04:51:56;;;;;;;3.50;3.20;;;;;;;9.04;71.72;94655.81;5016523;28;20207;-69
2022/05/03 04:54:25;;;;;;;3.83;3.53;;;;;;;9.09;70.60;94672.84;5016586;28;20198;-69
2022/05/03 04:56:59;;;;;;;3.35;3.15;;;;;;;9.08;69.79;94663.00;5033761;28;20213;-69
2022/05/03 04:59:26;;;;;;;2.95;2.75;;;;;;;9.12;68.10;94666.66;5016867;28;20205;-69
2022/05/03 05:01:55;;;;;;;3.50;3.20;;;;;;;9.14;67.96;94669.03;5033063;28;20194;-69
2022/05/03 05:04:24;;;;;;;2.97;2.78;;;;;;;9.22;68.03;94672.78;5016471;28;20194;-69
2022/05/03 05:06:51;;;;;;;3.47;3.17;;;;;;;9.18;68.18;94661.69;5016159;28;20690;-69
2022/05/03 05:09:21;;;;;;;3.28;3.05;;;;;;;9.23;68.91;94671.66;5033789;28;20212;-69
2022/05/03 05:11:49;;;;;;;3.90;3.25;;;;;;;9.27;69.21;94661.53;5016384;28;20214;-69
2022/05/03 05:14:20;;;;;;;3.53;3.30;;;;;;;9.19;68.42;94666.03;5033439;28;20273;-69
2022/05/03 05:16:49;;;;;;;3.60;3.30;;;;;;;9.25;67.78;94661.06;5016382;28;20194;-69
2022/05/03 05:19:19;;;;;;;3.50;3.20;;;;;;;9.25;67.38;94658.31;5034046;28;20186;-69
2022/05/03 05:21:48;;;;;;;3.70;3.40;;;;;;;9.28;68.58;94663.13;5035731;28;20664;-69
2022/05/03 05:24:17;;;;;;;4.03;3.72;;;;;;;9.29;66.99;94665.50;5020449;28;20230;-69
2022/05/03 05:26:45;;;;;;;3.63;3.33;;;;;;;9.26;66.64;94659.91;5037072;28;20292;-69
2022/05/03 05:29:14;;;;;;;4.75;4.35;;;;;;;9.31;67.49;94660.44;5037657;28;20242;-69
2022/05/03 05:31:42;;;;;;;4.05;3.63;;;;;;;9.27;66.88;94656.81;5020213;28;20642;-69
2022/05/03 05:34:10;;;;;;;3.40;3.20;;;;;;;9.25;67.77;94661.06;5036729;28;20198;-68
2022/05/03 05:36:39;;;;;;;4.00;3.33;;;;;;;9.24;67.27;94663.03;5037102;28;20287;-69
2022/05/03 05:39:08;;;;;;;3.72;3.30;;;;;;;9.29;67.15;94668.25;5036430;28;20199;-69
2022/05/03 05:41:36;;;;;;;3.30;3.00;;;;;;;9.27;67.03;94664.28;5036728;28;20206;-69
2022/05/03 05:44:04;;;;;;;3.30;3.10;;;;;;;9.41;66.70;94670.13;5036607;28;20187;-69
2022/05/03 05:46:32;;;;;;;3.38;3.08;;;;;;;9.47;66.11;94665.94;5020087;28;20197;-69
2022/05/03 05:49:00;;;;;;;3.00;2.80;;;;;;;9.51;65.68;94671.53;5036165;28;20610;-69
2022/05/03 05:51:28;;;;;;;3.10;2.90;;;;;;;9.61;64.11;94680.06;5019700;28;20230;-69
2022/05/03 05:53:57;;;;;;;3.25;3.05;;;;;;;9.64;64.16;94670.31;5036408;28;20289;-69
2022/05/03 05:56:25;;;;;;;2.80;2.60;;;;;;;9.68;63.00;94681.41;5035933;28;20205;-69
2022/05/03 05:58:53;;;;;;;3.60;3.30;;;;;;;9.63;63.05;94687.97;5019624;28;20252;-69
2022/05/03 06:01:26;;;;;;;2.80;2.58;;;;;;;9.57;62.95;94684.69;5036571;28;20208;-69
2022/05/03 06:03:54;;;;;;;3.13;2.70;;;;;;;9.64;63.47;94689.56;5035956;28;20239;-68
2022/05/03 06:06:22;;;;;;;2.83;2.60;;;;;;;9.74;62.80;94691.00;5036207;28;20201;-69
2022/05/03 06:08:51;;;;;;;3.08;2.78;;;;;;;9.72;61.90;94693.31;5019712;28;20403;-69
2022/05/03 06:11:21;;;;;;;3.08;2.55;;;;;;;9.73;61.18;94695.72;5019257;28;20199;-69
2022/05/03 06:13:50;;;;;;;2.78;2.58;;;;;;;9.58;61.46;94696.50;5035785;28;20213;-69
2022/05/03 06:16:19;;;;;;;2.85;2.50;;;;;;;9.58;62.68;94700.03;5035890;28;20198;-68
2022/05/03 06:18:47;;;;;;;3.30;2.97;;;;;;;9.56;63.56;94702.38;5036962;28;20197;-68
2022/05/03 06:21:15;;;;;;;3.58;3.28;;;;;;;9.55;64.64;94705.47;5035708;28;20274;-68
2022/05/03 06:23:42;;;;;;;3.05;2.75;;;;;;;9.48;64.14;94705.31;5036093;28;20194;-69
2022/05/03 06:26:12;;;;;;;3.60;2.70;;;;;;;9.45;64.38;94697.75;5019590;28;20197;-69
2022/05/03 06:28:42;;;;;;;2.97;2.40;;;;;;;9.45;63.63;94704.06;5018853;28;20254;-69
2022/05/03 06:31:12;;;;;;;2.67;2.47;;;;;;;9.48;64.31;94702.56;5035554;28;20234;-68
2022/05/03 06:33:42;;;;;;;2.65;2.45;;;;;;;9.46;63.80;94711.16;5018251;28;20210;-69
2022/05/03 06:36:10;;;;;;;3.33;2.40;;;;;;;9.47;62.95;94717.44;5035727;28;20293;-69
2022/05/03 06:38:38;;;;;;;2.75;2.40;;;;;;;9.51;63.13;94719.13;5019248;28;20629;-69
2022/05/03 06:41:08;;;;;;;3.15;2.75;;;;;;;9.63;63.31;94721.81;5036329;28;20204;-68
2022/05/03 06:43:36;;;;;;;4.97;2.50;;;;;;;9.74;62.47;94724.06;5035701;28;20603;-69
2022/05/03 06:46:08;;;;;;;2.53;2.38;;;;;;;9.74;63.40;94730.34;5019005;28;20201;-69
2022/05/03 06:48:37;;;;;;;2.83;2.63;;;;;;;9.79;62.40;94732.81;5018769;28;20195;-68
2022/05/03 06:51:06;;;;;;;2.67;2.47;;;;;;;9.74;62.68;94732.31;5002564;28;20198;-69
2022/05/03 06:53:35;;;;;;;2.95;2.63;;;;;;;9.80;63.58;94731.69;5035939;28;20223;-69
2022/05/03 06:56:03;;;;;;;3.85;3.03;;;;;;;9.86;63.16;94738.50;5036195;28;20190;-69
2022/05/03 06:58:31;;;;;;;3.03;2.70;;;;;;;9.94;63.93;94742.25;5036249;28;20189;-69
2022/05/03 07:01:09;;;;;;;3.03;2.70;;;;;;;10.02;63.52;94743.19;5036432;28;20187;-69
2022/05/03 07:03:38;;;;;;;3.30;2.95;;;;;;;10.09;63.06;94748.88;5018726;28;20194;-69
2022/05/03 07:06:07;;;;;;;3.40;3.10;;;;;;;10.21;63.67;94740.53;5036034;28;20301;-69
2022/05/03 07:08:35;;;;;;;4.15;3.13;;;;;;;10.22;63.70;94747.63;5018696;28;20208;-69
2022/05/03 07:11:04;;;;;;;4.32;2.92;;;;;;;10.33;62.68;94742.41;5035912;28;20179;-69
2022/05/03 07:13:32;;;;;;;3.38;3.00;;;;;;;10.30;62.76;94737.59;5035863;28;20650;-69
2022/05/03 07:16:01;;;;;;;3.38;2.90;;;;;;;10.32;62.70;94735.28;5035817;28;20186;-69
2022/05/03 07:24:05;;;;;;;3.05;2.70;;;;;;;10.32;62.25;94740.81;5018387;28;20213;-69
2022/05/03 07:26:33;;;;;;;4.40;3.13;;;;;;;10.29;63.55;94742.31;5035420;28;20190;-69
2022/05/03 07:29:03;;;;;;;3.22;2.90;;;;;;;10.36;63.04;94736.97;5034627;28;20242;-68
2022/05/03 07:31:30;;;;;;;3.20;3.00;;;;;;;10.33;62.89;94736.88;5035234;28;20191;-69
2022/05/03 07:34:03;;;;;;;3.58;3.38;;;;;;;10.33;63.33;94739.63;5035594;28;20179;-69
2022/05/03 07:36:30;;;;;;;4.00;3.60;;;;;;;10.29;63.53;94736.00;5034567;28;20221;-69
2022/05/03 07:38:58;;;;;;;3.90;3.47;;;;;;;10.26;63.94;94742.22;5034583;28;20207;-69
2022/05/03 07:41:26;;;;;;;4.25;3.80;;;;;;;10.17;63.00;94745.16;5017659;28;20384;-69
2022/05/03 07:43:54;;;;;;;5.47;3.92;;;;;;;10.25;64.04;94744.19;5017812;28;20236;-69
2022/05/03 07:46:22;;;;;;;4.03;3.67;;;;;;;10.30;63.21;94749.41;5034343;28;20213;-69
2022/05/03 07:48:50;;;;;;;4.00;3.60;;;;;;;10.34;62.36;94752.25;5035024;28;20511;-69
2022/05/03 07:51:21;;;;;;;3.90;3.50;;;;;;;10.43;63.45;94754.84;5034274;28;20195;-69
2022/05/03 07:53:48;;;;;;;4.15;3.25;;;;;;;10.47;62.54;94756.50;5017670;28;20226;-69
2022/05/03 07:56:15;;;;;;;3.63;3.33;;;;;;;10.46;61.84;94754.91;5033723;28;20297;-69
2022/05/03 07:58:44;;;;;;;4.30;3.45;;;;;;;10.38;63.62;94764.16;5035025;28;20526;-69
2022/05/03 08:01:12;;;;;;;3.15;2.95;;;;;;;10.32;62.83;94766.41;5033614;28;20198;-69
2022/05/03 08:03:40;;;;;;;3.60;3.30;;;;;;;10.33;63.62;94756.19;5034484;28;20190;-69
2022/05/03 08:06:07;;;;;;;4.35;3.78;;;;;;;10.38;62.97;94763.38;5034940;28;20194;-69
2022/05/03 08:08:37;;;;;;;3.38;3.17;;;;;;;10.39;62.67;94765.00;5017352;28;20209;-69
2022/05/03 08:11:04;;;;;;;3.45;3.15;;;;;;;10.37;62.43;94770.84;5017205;28;20210;-69
2022/05/03 08:13:31;;;;;;;3.60;3.30;;;;;;;10.35;62.36;94765.69;5034230;28;20217;-69
2022/05/03 08:15:59;;;;;;;4.05;3.50;;;;;;;10.35;62.82;94770.41;5033201;28;20204;-69
2022/05/03 08:18:27;;;;;;;4.05;3.63;;;;;;;10.35;62.86;94771.22;5033436;28;20202;-69
2022/05/03 08:20:55;;;;;;;4.00;3.55;;;;;;;10.40;63.95;94770.13;5033391;28;20205;-68
2022/05/03 08:23:23;;;;;;;3.95;3.58;;;;;;;10.33;65.06;94781.00;5034261;28;20209;-69
2022/05/03 08:25:53;;;;;;;3.63;3.35;;;;;;;10.22;64.91;94777.16;5034228;28;20194;-69
2022/05/03 08:28:21;;;;;;;3.03;2.72;;;;;;;10.31;64.48;94788.81;5034094;28;20233;-68
2022/05/03 08:30:50;;;;;;;4.50;3.10;;;;;;;10.31;65.12;94786.06;5017091;28;20198;-69
2022/05/03 08:33:18;;;;;;;4.93;3.30;;;;;;;10.29;65.73;94791.13;5034004;28;20214;-69
2022/05/03 08:35:46;;;;;;;5.05;3.53;;;;;;;10.25;65.36;94790.22;5034284;28;20183;-69
2022/05/03 08:43:49;;;;;;;2.75;2.55;;;;;;;10.30;65.38;94806.50;5034031;28;20237;-69
2022/05/03 08:46:18;;;;;;;3.88;2.70;;;;;;;10.31;65.57;94797.91;5033951;28;20196;-69
2022/05/03 08:48:46;;;;;;;3.08;2.78;;;;;;;10.40;64.78;94797.69;5016829;28;20198;-69
2022/05/03 08:51:18;;;;;;;8.88;4.10;;;;;;;10.46;65.49;94806.50;5034173;28;20186;-69
2022/05/03 08:53:46;;;;;;;5.90;3.65;;;;;;;10.42;64.64;94809.19;5016647;28;20207;-69
2022/05/03 08:56:18;;;;;;;4.50;3.20;;;;;;;10.32;64.88;94802.25;5033149;28;20190;-69
2022/05/03 08:58:49;;;;;;;3.63;2.90;;;;;;;10.25;65.26;94804.84;5033698;28;20213;-69
2022/05/03 09:01:20;;;;;;;3.47;3.17;;;;;;;10.35;65.51;94804.28;5016643;28;20212;-69
2022/05/03 09:03:48;;;;;;;9.57;5.43;;;;;;;10.46;65.73;94799.03;5033666;28;20284;-68
2022/05/03 09:06:16;;;;;;;2.78;2.58;;;;;;;10.57;64.51;94800.06;5032946;28;20210;-69
2022/05/03 09:08:44;;;;;;;2.65;2.45;;;;;;;10.68;63.40;94807.78;5032914;28;20198;-68
2022/05/03 09:11:17;;;;;;;2.60;2.35;;;;;;;10.71;63.14;94805.13;5033377;28;20207;-69
2022/05/03 09:13:46;;;;;;;2.80;2.60;;;;;;;10.68;63.69;94796.75;5033377;28;20634;-69
2022/05/03 09:16:15;;;;;;;3.35;2.60;;;;;;;10.69;63.86;94801.91;5032530;28;20205;-69
2022/05/03 09:18:44;;;;;;;3.22;2.92;;;;;;;10.77;64.25;94802.84;5033382;28;20571;-69
2022/05/03 09:24:14;;;;;;;2.63;2.42;;;;;;;10.72;62.30;94801.19;5016459;28;20204;-69
2022/05/03 09:26:47;;;;;;;3.17;2.88;;;;;;;10.74;63.46;94796.09;5033825;28;20197;-69
2022/05/03 09:29:15;;;;;;;2.83;2.60;;;;;;;10.82;63.65;94795.13;5033524;28;20262;-69
2022/05/03 09:31:47;;;;;;;3.10;2.80;;;;;;;10.99;63.75;94799.41;5033683;28;20205;-69
2022/05/03 09:34:25;;;;;;;2.83;2.63;;;;;;;11.09;62.02;94795.28;5033493;28;20285;-68
2022/05/03 09:36:55;;;;;;;3.50;2.63;;;;;;;11.17;62.02;94791.50;5033578;28;20269;-68
2022/05/03 09:39:23;;;;;;;3.08;2.85;;;;;;;11.41;62.93;94789.59;5033383;28;20202;-69
2022/05/03 09:42:10;;;;;;;3.08;2.70;;;;;;;11.64;61.67;94779.38;5016263;28;20194;-69
2022/05/03 09:44:51;;;;;;;3.00;2.80;;;;;;;11.81;62.78;94783.63;5033486;28;20202;-69
2022/05/03 09:47:21;;;;;;;2.45;2.20;;;;;;;11.71;59.51;94778.72;5032710;28;20191;-69
2022/05/03 09:49:47;;;;;;;3.15;2.80;;;;;;;11.61;60.32;94773.78;5033434;28;20230;-69
2022/05/03 09:52:27;;;;;;;2.42;2.33;;;;;;;11.53;59.64;94778.38;5015760;28;20190;-69
2022/05/03 09:54:59;;;;;;;3.35;2.40;;;;;;;11.45;58.68;94776.66;5015891;28;20252;-69
2022/05/03 09:57:31;;;;;;;3.03;2.72;;;;;;;11.43;59.30;94773.44;5016187;28;20186;-68
2022/05/03 10:00:00;;;;;;;3.00;2.67;;;;;;;11.46;59.90;94773.53;5032200;28;20202;-69
2022/05/03 10:02:29;;;;;;;2.33;2.13;;;;;;;11.60;58.57;94773.00;5016106;28;20397;-68
2022/05/03 10:04:58;;;;;;;2.97;2.63;;;;;;;11.78;60.32;94773.31;5015879;28;20205;-68
2022/05/03 10:07:27;;;;;;;3.57;2.53;;;;;;;11.87;60.50;94773.09;5035229;28;20284;-68
2022/05/03 10:09:55;;;;;;;4.43;2.60;;;;;;;11.93;59.30;94772.44;5036840;28;20179;-68
2022/05/03 10:12:23;;;;;;;4.00;2.47;;;;;;;11.73;58.23;94776.41;5035937;28;20202;-68
2022/05/03 10:14:52;;;;;;;3.15;2.95;;;;;;;11.53;58.48;94764.56;5037199;28;20183;-68
2022/05/03 10:23:00;;;;;;;2.22;2.13;;;;;;;11.56;57.64;94770.16;5036699;28;20197;-68
2022/05/03 10:25:54;;;;;;;2.70;2.50;;;;;;;11.49;58.50;94767.28;5019651;28;20202;-68
2022/05/03 10:28:23;;;;;;;2.17;1.98;;;;;;;11.43;57.95;94776.22;5018918;28;20244;-68
2022/05/03 10:31:17;;;;;;;2.27;2.10;;;;;;;11.46;58.03;94764.44;5019516;28;20206;-68
2022/05/03 10:33:45;;;;;;;2.47;2.30;;;;;;;11.52;59.00;94777.59;5036024;28;20419;-68
2022/05/03 10:36:43;;;;;;;2.70;2.50;;;;;;;11.51;57.26;94772.41;5036601;28;20198;-68
2022/05/03 10:39:23;;;;;;;2.63;2.40;;;;;;;11.52;58.00;94771.28;5019130;28;20205;-68
2022/05/03 10:41:59;;;;;;;2.55;2.45;;;;;;;11.51;58.06;94777.94;5036543;28;20197;-68
2022/05/03 10:44:41;;;;;;;2.40;2.20;;;;;;;11.46;57.15;94773.53;5036378;28;20179;-68
2022/05/03 10:47:12;;;;;;;2.38;2.20;;;;;;;11.44;56.93;94772.31;5036159;28;20603;-68
2022/05/03 10:50:15;;;;;;;2.33;2.10;;;;;;;11.46;57.31;94776.28;5035495;28;20277;-68
2022/05/03 10:52:44;;;;;;;2.33;2.13;;;;;;;11.40;57.02;94775.00;4995873;28;20280;-68
2022/05/03 10:55:13;;;;;;;2.22;2.10;;;;;;;11.32;56.81;94776.81;5036278;28;20210;-68
2022/05/03 10:58:18;;;;;;;2.38;2.17;;;;;;;11.31;57.56;94774.41;5035913;28;20607;-68
2022/05/03 11:01:08;;;;;;;3.13;2.22;;;;;;;11.48;58.05;94776.72;5032243;28;20602;-68
2022/05/03 11:03:39;;;;;;;2.42;2.22;;;;;;;11.69;57.95;94770.81;5035184;28;20611;-68
2022/05/03 11:06:34;;;;;;;2.33;2.13;;;;;;;11.77;56.69;94768.97;5018507;28;20617;-68
2022/05/03 11:09:09;;;;;;;3.47;2.38;;;;;;;11.82;56.33;94760.34;5036086;28;20191;-69
2022/05/03 11:11:58;;;;;;;2.25;2.10;;;;;;;11.94;57.48;94759.41;5035652;28;20249;-68
2022/05/03 11:14:46;;;;;;;3.38;2.15;;;;;;;12.27;58.95;94767.88;5034655;28;20226;-68
2022/05/03 11:17:13;;;;;;;2.95;2.38;;;;;;;12.65;57.21;94762.50;5036103;28;20240;-68
2022/05/03 11:19:49;;;;;;;11.98;3.90;;;;;;;12.75;54.60;94750.78;5035385;28;20200;-68
2022/05/03 11:22:18;;;;;;;2.60;2.40;;;;;;;12.64;55.10;94755.38;5035779;28;20198;-68
2022/05/03 11:24:45;;;;;;;2.45;2.25;;;;;;;12.51;54.25;94747.28;5034957;28;20194;-68
2022/05/03 11:27:14;;;;;;;4.50;2.35;;;;;;;12.35;56.03;94754.94;5034831;28;20213;-68
2022/05/03 11:29:43;;;;;;;2.45;2.10;;;;;;;12.29;55.82;94761.97;5017726;28;20234;-68
2022/05/03 11:32:11;;;;;;;2.90;2.35;;;;;;;12.26;55.78;94759.94;5035240;28;20182;-68
2022/05/03 11:34:39;;;;;;;2.47;2.15;;;;;;;12.20;54.57;94753.09;5017950;28;20225;-68
2022/05/03 11:37:08;;;;;;;2.42;2.22;;;;;;;12.03;54.27;94752.47;5018135;28;20218;-68
2022/05/03 11:39:36;;;;;;;2.80;2.60;;;;;;;12.08;54.82;94754.09;5035116;28;20179;-68
2022/05/03 11:42:07;;;;;;;3.03;2.40;;;;;;;12.17;53.90;94742.81;5017969;28;20202;-68
2022/05/03 11:44:35;;;;;;;3.15;2.67;;;;;;;12.25;55.42;94741.75;5035387;28;20174;-68
2022/05/03 11:47:04;;;;;;;2.85;2.60;;;;;;;12.45;55.66;94746.00;5034509;28;20186;-68
2022/05/03 11:49:32;;;;;;;3.35;3.05;;;;;;;12.68;54.16;94732.09;5017716;28;20202;-68
2022/05/03 11:57:38;;;;;;;3.08;2.80;;;;;;;12.60;53.03;94744.25;5017324;28;20600;-69
2022/05/03 12:00:06;;;;;;;2.60;2.40;;;;;;;12.49;51.36;94746.88;5035050;28;20198;-68
2022/05/03 12:02:34;;;;;;;2.53;2.40;;;;;;;12.46;51.86;94739.31;5034728;28;20607;-69
2022/05/03 12:05:16;;;;;;;3.08;2.88;;;;;;;12.48;53.01;94725.88;5035059;28;20191;-69
2022/05/03 12:07:44;;;;;;;2.55;2.35;;;;;;;12.49;53.13;94733.03;5033999;28;20194;-69
2022/05/03 12:10:27;;;;;;;2.83;2.33;;;;;;;12.53;52.36;94728.34;5034960;28;20201;-68
2022/05/03 12:13:06;;;;;;;2.30;2.17;;;;;;;12.59;52.05;94728.81;5034927;28;20284;-69
2022/05/03 12:15:35;;;;;;;2.72;2.50;;;;;;;12.66;52.43;94723.38;5033441;28;20215;-69
2022/05/03 12:18:04;;;;;;;2.35;2.25;;;;;;;12.70;53.08;94729.75;5017348;28;20206;-69
2022/05/03 12:20:41;;;;;;;2.35;2.20;;;;;;;12.70;53.39;94728.94;5033461;28;20202;-69
2022/05/03 12:23:17;;;;;;;2.58;2.30;;;;;;;12.57;52.70;94727.59;5033649;28;20213;-69
2022/05/03 12:25:47;;;;;;;2.80;2.08;;;;;;;12.28;52.71;94738.25;5017235;28;20212;-68
2022/05/03 12:28:14;;;;;;;1.80;1.70;;;;;;;12.26;53.69;94738.59;5034452;28;20186;-68
2022/05/03 12:30:42;;;;;;;2.38;2.20;;;;;;;12.19;54.10;94741.25;5032502;28;20685;-69
2022/05/03 12:33:10;;;;;;;2.10;1.90;;;;;;;12.16;52.66;94749.50;5016887;28;20199;-68
2022/05/03 12:35:38;;;;;;;2.30;2.10;;;;;;;12.10;54.15;94751.78;5033876;28;20214;-68